Portada
METAR-TAF:

METAR-TAF

Aeroports :

Aeroport de Ouarzazate

Ouarzazate, Marroc

latitud: 30-56N, longitud: 006-54W, altitud: 1139 m

Observació

L'informe es va fer fa 40 minuts, a les 21:00 UTC
Vent 10 kt del Nord-Est
Temperatura 29°C
Humitat 19%
Pressió 1022 hPa
Visibilitat: 8000 m
Núvols disperses a una alçada de 5000 ft

METAR: GMMZ 262100Z 04010KT 8000 SCT050 29/03 Q1022 NOSIG

Hora: 22:40 (21:40 UTC)

Pronòstic

L'informe es va fer fa 4 hores i 40 minuts, a les 17:00 UTC
Pronòstic vàlid del 26 a les 18 UTC al 27 a les 24 UTC
Vent 6 kt del Sud/Sud-Oest
Visibilitat: 8000 m
Evolucionant progressivament
l' 27 a les 14 UTC al 27 a les 15 UTC
Vent 14 kt del Oest/Sud-Oest

TAF: GMMZ 261700Z 2618/2724 20006KT 8000 NSC BECMG 2714/2715 24014KT

Observacions i pronòstics meteorològics de més de 4000 aeroports (METAR i TAF).

Les estacions disponibles són els punts grocs i vermells al mapa.

Posi el ratolí al punt desitjat per veure el nom de l'estació.

Feu clic per veure les observacions i els pronòstics meteorològics.

Per canviar el mapa: feu clic els botons verds amb una creu de color negre per apropar; al botó verd amb un guió per allunyar la imatge; o en les fletxes verdes per a mapes adjacents.


METAR-TAF: